sensor_id;sensor_type;location;lat;lon;timestamp;P1;durP1;ratioP1;P2;durP2;ratioP2
29938;SDS011;16799;50.844;5.304;2022-08-03T00:01:17;4.40;;;2.60;;
29938;SDS011;16799;50.844;5.304;2022-08-03T00:03:43;4.90;;;2.70;;
29938;SDS011;16799;50.844;5.304;2022-08-03T00:06:08;4.60;;;2.57;;
29938;SDS011;16799;50.844;5.304;2022-08-03T00:08:34;3.50;;;2.07;;
29938;SDS011;16799;50.844;5.304;2022-08-03T00:11:00;2.67;;;2.47;;
29938;SDS011;16799;50.844;5.304;2022-08-03T00:13:26;1.97;;;1.87;;
29938;SDS011;16799;50.844;5.304;2022-08-03T00:15:52;4.00;;;1.90;;
29938;SDS011;16799;50.844;5.304;2022-08-03T00:18:18;2.97;;;2.77;;
29938;SDS011;16799;50.844;5.304;2022-08-03T00:20:43;3.33;;;2.50;;
29938;SDS011;16799;50.844;5.304;2022-08-03T00:23:09;3.70;;;2.30;;
29938;SDS011;16799;50.844;5.304;2022-08-03T00:25:35;4.90;;;2.50;;
29938;SDS011;16799;50.844;5.304;2022-08-03T00:28:02;4.33;;;3.70;;
29938;SDS011;16799;50.844;5.304;2022-08-03T00:30:29;5.70;;;3.53;;
29938;SDS011;16799;50.844;5.304;2022-08-03T00:32:55;5.13;;;2.47;;
29938;SDS011;16799;50.844;5.304;2022-08-03T00:35:22;2.27;;;2.07;;
29938;SDS011;16799;50.844;5.304;2022-08-03T00:37:47;3.00;;;2.20;;
29938;SDS011;16799;50.844;5.304;2022-08-03T00:40:14;2.27;;;1.77;;
29938;SDS011;16799;50.844;5.304;2022-08-03T00:42:48;1.93;;;1.73;;
29938;SDS011;16799;50.844;5.304;2022-08-03T00:45:21;6.80;;;2.90;;
29938;SDS011;16799;50.844;5.304;2022-08-03T00:47:51;3.33;;;2.30;;
29938;SDS011;16799;50.844;5.304;2022-08-03T00:50:18;3.13;;;2.90;;
29938;SDS011;16799;50.844;5.304;2022-08-03T00:52:47;7.17;;;2.40;;
29938;SDS011;16799;50.844;5.304;2022-08-03T00:55:13;3.40;;;3.10;;
29938;SDS011;16799;50.844;5.304;2022-08-03T00:57:38;2.60;;;2.40;;
29938;SDS011;16799;50.844;5.304;2022-08-03T01:00:06;2.70;;;2.40;;
29938;SDS011;16799;50.844;5.304;2022-08-03T01:02:33;3.70;;;2.10;;
29938;SDS011;16799;50.844;5.304;2022-08-03T01:04:59;3.40;;;2.40;;
29938;SDS011;16799;50.844;5.304;2022-08-03T01:07:35;5.33;;;2.50;;
29938;SDS011;16799;50.844;5.304;2022-08-03T01:10:27;7.63;;;2.73;;
29938;SDS011;16799;50.844;5.304;2022-08-03T01:15:56;2.43;;;2.17;;
29938;SDS011;16799;50.844;5.304;2022-08-03T01:21:38;3.53;;;2.00;;
29938;SDS011;16799;50.844;5.304;2022-08-03T01:24:28;4.50;;;2.60;;
29938;SDS011;16799;50.844;5.304;2022-08-03T01:27:08;2.73;;;2.43;;
29938;SDS011;16799;50.844;5.304;2022-08-03T01:29:51;6.47;;;3.30;;
29938;SDS011;16799;50.844;5.304;2022-08-03T01:32:40;2.90;;;2.47;;
29938;SDS011;16799;50.844;5.304;2022-08-03T01:36:00;3.57;;;2.90;;
29938;SDS011;16799;50.844;5.304;2022-08-03T01:38:34;6.63;;;2.50;;
29938;SDS011;16799;50.844;5.304;2022-08-03T01:41:12;3.47;;;2.30;;
29938;SDS011;16799;50.844;5.304;2022-08-03T01:43:43;7.90;;;2.50;;
29938;SDS011;16799;50.844;5.304;2022-08-03T01:46:13;4.00;;;2.30;;
29938;SDS011;16799;50.844;5.304;2022-08-03T01:48:40;2.00;;;1.90;;
29938;SDS011;16799;50.844;5.304;2022-08-03T01:51:07;2.53;;;2.33;;
29938;SDS011;16799;50.844;5.304;2022-08-03T01:53:34;6.70;;;2.20;;
29938;SDS011;16799;50.844;5.304;2022-08-03T01:56:02;10.03;;;2.33;;
29938;SDS011;16799;50.844;5.304;2022-08-03T01:58:30;4.60;;;1.63;;
29938;SDS011;16799;50.844;5.304;2022-08-03T02:00:58;8.23;;;2.23;;
29938;SDS011;16799;50.844;5.304;2022-08-03T02:03:27;4.13;;;2.10;;
29938;SDS011;16799;50.844;5.304;2022-08-03T02:05:55;7.23;;;2.63;;
29938;SDS011;16799;50.844;5.304;2022-08-03T02:08:23;3.90;;;2.90;;
29938;SDS011;16799;50.844;5.304;2022-08-03T02:10:50;2.10;;;2.00;;
29938;SDS011;16799;50.844;5.304;2022-08-03T02:13:18;3.83;;;2.70;;
29938;SDS011;16799;50.844;5.304;2022-08-03T02:15:46;2.40;;;2.30;;
29938;SDS011;16799;50.844;5.304;2022-08-03T02:18:13;4.07;;;2.87;;
29938;SDS011;16799;50.844;5.304;2022-08-03T02:20:41;2.40;;;2.30;;
29938;SDS011;16799;50.844;5.304;2022-08-03T02:23:08;2.97;;;2.67;;
29938;SDS011;16799;50.844;5.304;2022-08-03T02:25:36;2.83;;;2.17;;
29938;SDS011;16799;50.844;5.304;2022-08-03T02:28:09;7.40;;;2.90;;
29938;SDS011;16799;50.844;5.304;2022-08-03T02:30:36;3.23;;;2.30;;
29938;SDS011;16799;50.844;5.304;2022-08-03T02:33:06;4.73;;;2.53;;
29938;SDS011;16799;50.844;5.304;2022-08-03T02:35:36;3.40;;;2.27;;
29938;SDS011;16799;50.844;5.304;2022-08-03T02:38:04;5.27;;;2.70;;
29938;SDS011;16799;50.844;5.304;2022-08-03T02:40:34;4.17;;;2.83;;
29938;SDS011;16799;50.844;5.304;2022-08-03T02:43:04;2.83;;;2.40;;
29938;SDS011;16799;50.844;5.304;2022-08-03T02:45:38;10.30;;;2.27;;
29938;SDS011;16799;50.844;5.304;2022-08-03T02:48:08;3.00;;;2.43;;
29938;SDS011;16799;50.844;5.304;2022-08-03T02:50:35;8.23;;;3.47;;
29938;SDS011;16799;50.844;5.304;2022-08-03T02:53:02;2.87;;;2.17;;
29938;SDS011;16799;50.844;5.304;2022-08-03T02:55:28;3.40;;;3.10;;
29938;SDS011;16799;50.844;5.304;2022-08-03T02:57:56;7.20;;;2.70;;
29938;SDS011;16799;50.844;5.304;2022-08-03T03:00:23;4.40;;;3.30;;
29938;SDS011;16799;50.844;5.304;2022-08-03T03:02:49;3.40;;;3.00;;
29938;SDS011;16799;50.844;5.304;2022-08-03T03:05:16;2.67;;;2.47;;
29938;SDS011;16799;50.844;5.304;2022-08-03T03:07:42;2.40;;;2.20;;
29938;SDS011;16799;50.844;5.304;2022-08-03T03:10:09;7.67;;;2.60;;
29938;SDS011;16799;50.844;5.304;2022-08-03T03:12:36;3.93;;;2.67;;
29938;SDS011;16799;50.844;5.304;2022-08-03T03:15:04;5.00;;;2.53;;
29938;SDS011;16799;50.844;5.304;2022-08-03T03:17:32;5.70;;;3.33;;
29938;SDS011;16799;50.844;5.304;2022-08-03T03:19:59;8.63;;;2.90;;
29938;SDS011;16799;50.844;5.304;2022-08-03T03:22:25;3.53;;;2.57;;
29938;SDS011;16799;50.844;5.304;2022-08-03T03:24:52;1.97;;;1.87;;
29938;SDS011;16799;50.844;5.304;2022-08-03T03:27:19;7.77;;;2.53;;
29938;SDS011;16799;50.844;5.304;2022-08-03T03:29:46;2.33;;;2.20;;
29938;SDS011;16799;50.844;5.304;2022-08-03T03:32:12;4.63;;;2.40;;
29938;SDS011;16799;50.844;5.304;2022-08-03T03:34:38;2.20;;;2.00;;
29938;SDS011;16799;50.844;5.304;2022-08-03T03:37:04;5.07;;;2.07;;
29938;SDS011;16799;50.844;5.304;2022-08-03T03:39:30;10.80;;;3.17;;
29938;SDS011;16799;50.844;5.304;2022-08-03T03:41:56;4.50;;;2.70;;
29938;SDS011;16799;50.844;5.304;2022-08-03T03:44:25;3.57;;;3.27;;
29938;SDS011;16799;50.844;5.304;2022-08-03T03:46:52;2.60;;;2.40;;
29938;SDS011;16799;50.844;5.304;2022-08-03T03:49:19;5.77;;;2.77;;
29938;SDS011;16799;50.844;5.304;2022-08-03T03:51:45;2.20;;;2.10;;
29938;SDS011;16799;50.844;5.304;2022-08-03T03:54:10;3.90;;;2.70;;
29938;SDS011;16799;50.844;5.304;2022-08-03T03:56:36;3.30;;;2.13;;
29938;SDS011;16799;50.844;5.304;2022-08-03T03:59:02;2.83;;;2.63;;
29938;SDS011;16799;50.844;5.304;2022-08-03T04:01:28;4.20;;;3.47;;
29938;SDS011;16799;50.844;5.304;2022-08-03T04:03:54;2.97;;;2.67;;
29938;SDS011;16799;50.844;5.304;2022-08-03T04:06:20;1.90;;;1.77;;
29938;SDS011;16799;50.844;5.304;2022-08-03T04:09:05;4.17;;;3.70;;
29938;SDS011;16799;50.844;5.304;2022-08-03T04:11:52;4.17;;;3.63;;
29938;SDS011;16799;50.844;5.304;2022-08-03T04:14:23;9.60;;;3.30;;
29938;SDS011;16799;50.844;5.304;2022-08-03T04:16:54;3.30;;;3.10;;
29938;SDS011;16799;50.844;5.304;2022-08-03T04:19:27;3.90;;;2.60;;
29938;SDS011;16799;50.844;5.304;2022-08-03T04:22:03;4.93;;;3.17;;
29938;SDS011;16799;50.844;5.304;2022-08-03T04:24:37;9.60;;;3.17;;
29938;SDS011;16799;50.844;5.304;2022-08-03T04:27:07;4.50;;;3.80;;
29938;SDS011;16799;50.844;5.304;2022-08-03T04:29:36;3.53;;;3.23;;
29938;SDS011;16799;50.844;5.304;2022-08-03T04:32:05;9.07;;;3.13;;
29938;SDS011;16799;50.844;5.304;2022-08-03T04:34:32;3.23;;;2.93;;
29938;SDS011;16799;50.844;5.304;2022-08-03T04:37:00;12.20;;;5.00;;
29938;SDS011;16799;50.844;5.304;2022-08-03T04:39:30;4.80;;;2.57;;
29938;SDS011;16799;50.844;5.304;2022-08-03T04:42:01;7.00;;;3.10;;
29938;SDS011;16799;50.844;5.304;2022-08-03T04:44:30;6.20;;;3.50;;
29938;SDS011;16799;50.844;5.304;2022-08-03T04:47:04;6.87;;;3.83;;
29938;SDS011;16799;50.844;5.304;2022-08-03T04:49:31;9.53;;;2.67;;
29938;SDS011;16799;50.844;5.304;2022-08-03T04:51:57;10.90;;;2.90;;
29938;SDS011;16799;50.844;5.304;2022-08-03T04:54:23;10.37;;;3.67;;
29938;SDS011;16799;50.844;5.304;2022-08-03T04:56:48;5.70;;;3.60;;
29938;SDS011;16799;50.844;5.304;2022-08-03T04:59:14;3.67;;;3.23;;
29938;SDS011;16799;50.844;5.304;2022-08-03T05:01:41;3.00;;;2.70;;
29938;SDS011;16799;50.844;5.304;2022-08-03T05:04:07;3.53;;;3.30;;
29938;SDS011;16799;50.844;5.304;2022-08-03T05:06:33;4.40;;;3.30;;
29938;SDS011;16799;50.844;5.304;2022-08-03T05:08:58;5.03;;;2.80;;
29938;SDS011;16799;50.844;5.304;2022-08-03T05:11:24;13.83;;;3.00;;
29938;SDS011;16799;50.844;5.304;2022-08-03T05:13:49;3.77;;;3.50;;
29938;SDS011;16799;50.844;5.304;2022-08-03T05:16:15;3.77;;;3.30;;
29938;SDS011;16799;50.844;5.304;2022-08-03T05:18:41;5.03;;;3.27;;
29938;SDS011;16799;50.844;5.304;2022-08-03T05:21:08;6.30;;;3.40;;
29938;SDS011;16799;50.844;5.304;2022-08-03T05:23:34;7.40;;;3.23;;
29938;SDS011;16799;50.844;5.304;2022-08-03T05:26:00;8.73;;;2.90;;
29938;SDS011;16799;50.844;5.304;2022-08-03T05:28:26;5.00;;;3.03;;
29938;SDS011;16799;50.844;5.304;2022-08-03T05:30:51;2.50;;;2.30;;
29938;SDS011;16799;50.844;5.304;2022-08-03T05:33:17;6.03;;;3.30;;
29938;SDS011;16799;50.844;5.304;2022-08-03T05:35:43;6.40;;;3.03;;
29938;SDS011;16799;50.844;5.304;2022-08-03T05:38:08;7.83;;;3.57;;
29938;SDS011;16799;50.844;5.304;2022-08-03T05:40:34;4.27;;;2.63;;
29938;SDS011;16799;50.844;5.304;2022-08-03T05:43:00;4.30;;;3.73;;
29938;SDS011;16799;50.844;5.304;2022-08-03T05:45:25;5.50;;;2.80;;
29938;SDS011;16799;50.844;5.304;2022-08-03T05:47:51;4.77;;;3.60;;
29938;SDS011;16799;50.844;5.304;2022-08-03T05:50:17;4.53;;;3.13;;
29938;SDS011;16799;50.844;5.304;2022-08-03T05:52:44;3.47;;;2.80;;
29938;SDS011;16799;50.844;5.304;2022-08-03T05:55:10;19.03;;;3.97;;
29938;SDS011;16799;50.844;5.304;2022-08-03T05:57:37;5.43;;;3.57;;
29938;SDS011;16799;50.844;5.304;2022-08-03T06:00:04;3.10;;;2.90;;
29938;SDS011;16799;50.844;5.304;2022-08-03T06:02:32;5.43;;;3.20;;
29938;SDS011;16799;50.844;5.304;2022-08-03T06:04:58;9.93;;;3.70;;
29938;SDS011;16799;50.844;5.304;2022-08-03T06:07:24;6.47;;;3.50;;
29938;SDS011;16799;50.844;5.304;2022-08-03T06:09:50;6.93;;;3.13;;
29938;SDS011;16799;50.844;5.304;2022-08-03T06:12:16;5.27;;;3.17;;
29938;SDS011;16799;50.844;5.304;2022-08-03T06:14:42;6.27;;;3.53;;
29938;SDS011;16799;50.844;5.304;2022-08-03T06:17:07;3.03;;;2.07;;
29938;SDS011;16799;50.844;5.304;2022-08-03T06:19:33;7.70;;;2.43;;
29938;SDS011;16799;50.844;5.304;2022-08-03T06:21:59;4.50;;;2.93;;
29938;SDS011;16799;50.844;5.304;2022-08-03T06:24:24;6.63;;;3.00;;
29938;SDS011;16799;50.844;5.304;2022-08-03T06:26:50;6.10;;;2.57;;
29938;SDS011;16799;50.844;5.304;2022-08-03T06:29:15;3.90;;;2.97;;
29938;SDS011;16799;50.844;5.304;2022-08-03T06:31:41;2.90;;;2.10;;
29938;SDS011;16799;50.844;5.304;2022-08-03T06:34:07;3.27;;;2.97;;
29938;SDS011;16799;50.844;5.304;2022-08-03T06:36:32;2.93;;;2.67;;
29938;SDS011;16799;50.844;5.304;2022-08-03T06:38:58;5.70;;;2.73;;
29938;SDS011;16799;50.844;5.304;2022-08-03T06:41:25;8.03;;;2.80;;
29938;SDS011;16799;50.844;5.304;2022-08-03T06:43:51;12.27;;;2.83;;
29938;SDS011;16799;50.844;5.304;2022-08-03T06:46:16;6.17;;;2.80;;
29938;SDS011;16799;50.844;5.304;2022-08-03T06:48:42;5.33;;;2.60;;
29938;SDS011;16799;50.844;5.304;2022-08-03T06:51:08;8.70;;;2.10;;
29938;SDS011;16799;50.844;5.304;2022-08-03T06:53:34;4.77;;;2.10;;
29938;SDS011;16799;50.844;5.304;2022-08-03T06:56:00;2.00;;;1.77;;
29938;SDS011;16799;50.844;5.304;2022-08-03T06:58:26;4.60;;;1.80;;
29938;SDS011;16799;50.844;5.304;2022-08-03T07:00:51;2.60;;;2.23;;
29938;SDS011;16799;50.844;5.304;2022-08-03T07:03:17;2.20;;;1.97;;
29938;SDS011;16799;50.844;5.304;2022-08-03T07:05:42;5.80;;;2.47;;
29938;SDS011;16799;50.844;5.304;2022-08-03T07:08:11;8.10;;;2.17;;
29938;SDS011;16799;50.844;5.304;2022-08-03T07:10:37;5.33;;;1.43;;
29938;SDS011;16799;50.844;5.304;2022-08-03T07:13:03;4.60;;;2.30;;
29938;SDS011;16799;50.844;5.304;2022-08-03T07:15:30;1.70;;;1.60;;
29938;SDS011;16799;50.844;5.304;2022-08-03T07:17:56;4.53;;;1.83;;
29938;SDS011;16799;50.844;5.304;2022-08-03T07:20:22;3.97;;;1.63;;
29938;SDS011;16799;50.844;5.304;2022-08-03T07:22:48;2.10;;;1.67;;
29938;SDS011;16799;50.844;5.304;2022-08-03T07:25:14;16.63;;;2.90;;
29938;SDS011;16799;50.844;5.304;2022-08-03T07:27:43;9.03;;;2.10;;
29938;SDS011;16799;50.844;5.304;2022-08-03T07:30:09;3.63;;;1.90;;
29938;SDS011;16799;50.844;5.304;2022-08-03T07:32:35;5.13;;;2.23;;
29938;SDS011;16799;50.844;5.304;2022-08-03T07:35:01;1.90;;;1.80;;
29938;SDS011;16799;50.844;5.304;2022-08-03T07:37:28;3.00;;;1.93;;
29938;SDS011;16799;50.844;5.304;2022-08-03T07:39:54;3.70;;;1.53;;
29938;SDS011;16799;50.844;5.304;2022-08-03T07:42:20;3.27;;;2.37;;
29938;SDS011;16799;50.844;5.304;2022-08-03T07:44:47;6.20;;;1.10;;
29938;SDS011;16799;50.844;5.304;2022-08-03T07:47:17;6.40;;;2.80;;
29938;SDS011;16799;50.844;5.304;2022-08-03T07:49:49;5.67;;;1.40;;
29938;SDS011;16799;50.844;5.304;2022-08-03T07:52:15;2.17;;;1.50;;
29938;SDS011;16799;50.844;5.304;2022-08-03T07:55:00;5.07;;;1.30;;
29938;SDS011;16799;50.844;5.304;2022-08-03T07:57:26;4.50;;;1.23;;
29938;SDS011;16799;50.844;5.304;2022-08-03T07:59:51;1.53;;;1.20;;
29938;SDS011;16799;50.844;5.304;2022-08-03T08:02:17;8.13;;;1.73;;
29938;SDS011;16799;50.844;5.304;2022-08-03T08:04:43;4.47;;;1.60;;
29938;SDS011;16799;50.844;5.304;2022-08-03T08:07:08;3.03;;;1.50;;
29938;SDS011;16799;50.844;5.304;2022-08-03T08:09:34;2.93;;;1.30;;
29938;SDS011;16799;50.844;5.304;2022-08-03T08:12:00;1.50;;;1.13;;
29938;SDS011;16799;50.844;5.304;2022-08-03T08:14:25;5.33;;;1.03;;
29938;SDS011;16799;50.844;5.304;2022-08-03T08:16:51;3.23;;;1.50;;
29938;SDS011;16799;50.844;5.304;2022-08-03T08:19:16;8.60;;;1.73;;
29938;SDS011;16799;50.844;5.304;2022-08-03T08:21:42;2.70;;;1.60;;
29938;SDS011;16799;50.844;5.304;2022-08-03T08:24:08;5.47;;;1.30;;
29938;SDS011;16799;50.844;5.304;2022-08-03T08:26:34;1.17;;;0.90;;
29938;SDS011;16799;50.844;5.304;2022-08-03T08:29:00;2.53;;;1.10;;
29938;SDS011;16799;50.844;5.304;2022-08-03T08:31:27;1.17;;;0.80;;
29938;SDS011;16799;50.844;5.304;2022-08-03T08:33:53;3.43;;;1.00;;
29938;SDS011;16799;50.844;5.304;2022-08-03T08:36:18;1.60;;;0.87;;
29938;SDS011;16799;50.844;5.304;2022-08-03T08:38:44;7.60;;;1.03;;
29938;SDS011;16799;50.844;5.304;2022-08-03T08:41:10;3.20;;;1.20;;
29938;SDS011;16799;50.844;5.304;2022-08-03T08:43:37;4.70;;;1.00;;
29938;SDS011;16799;50.844;5.304;2022-08-03T08:46:03;9.87;;;1.33;;
29938;SDS011;16799;50.844;5.304;2022-08-03T08:48:32;2.20;;;1.37;;
29938;SDS011;16799;50.844;5.304;2022-08-03T08:50:59;7.20;;;1.13;;
29938;SDS011;16799;50.844;5.304;2022-08-03T08:53:27;1.50;;;1.10;;
29938;SDS011;16799;50.844;5.304;2022-08-03T08:55:54;1.50;;;1.40;;
29938;SDS011;16799;50.844;5.304;2022-08-03T08:58:24;3.13;;;1.17;;
29938;SDS011;16799;50.844;5.304;2022-08-03T09:00:52;1.53;;;1.00;;
29938;SDS011;16799;50.844;5.304;2022-08-03T09:03:18;4.43;;;0.90;;
29938;SDS011;16799;50.844;5.304;2022-08-03T09:05:45;2.30;;;1.10;;
29938;SDS011;16799;50.844;5.304;2022-08-03T09:08:10;4.03;;;1.47;;
29938;SDS011;16799;50.844;5.304;2022-08-03T09:10:37;2.60;;;1.00;;
29938;SDS011;16799;50.844;5.304;2022-08-03T09:13:03;5.40;;;1.00;;
29938;SDS011;16799;50.844;5.304;2022-08-03T09:15:29;1.50;;;0.90;;
29938;SDS011;16799;50.844;5.304;2022-08-03T09:18:00;2.50;;;1.07;;
29938;SDS011;16799;50.844;5.304;2022-08-03T09:20:28;2.07;;;1.27;;
29938;SDS011;16799;50.844;5.304;2022-08-03T09:22:57;2.30;;;1.13;;
29938;SDS011;16799;50.844;5.304;2022-08-03T09:25:25;4.50;;;1.50;;
29938;SDS011;16799;50.844;5.304;2022-08-03T09:28:06;5.10;;;1.33;;
29938;SDS011;16799;50.844;5.304;2022-08-03T09:30:37;7.83;;;1.87;;
29938;SDS011;16799;50.844;5.304;2022-08-03T09:33:08;3.80;;;1.23;;
29938;SDS011;16799;50.844;5.304;2022-08-03T09:35:42;2.23;;;1.00;;
29938;SDS011;16799;50.844;5.304;2022-08-03T09:38:09;1.57;;;1.07;;
29938;SDS011;16799;50.844;5.304;2022-08-03T09:40:36;3.17;;;1.10;;
29938;SDS011;16799;50.844;5.304;2022-08-03T09:43:02;1.70;;;0.70;;
29938;SDS011;16799;50.844;5.304;2022-08-03T09:45:28;2.20;;;1.60;;
29938;SDS011;16799;50.844;5.304;2022-08-03T09:47:54;1.53;;;0.80;;
29938;SDS011;16799;50.844;5.304;2022-08-03T09:50:21;1.60;;;0.90;;
29938;SDS011;16799;50.844;5.304;2022-08-03T09:52:47;1.10;;;0.90;;
29938;SDS011;16799;50.844;5.304;2022-08-03T09:55:15;3.00;;;0.90;;
29938;SDS011;16799;50.844;5.304;2022-08-03T09:57:44;4.40;;;1.00;;
29938;SDS011;16799;50.844;5.304;2022-08-03T10:00:14;1.83;;;1.20;;
29938;SDS011;16799;50.844;5.304;2022-08-03T10:02:42;2.80;;;1.57;;
29938;SDS011;16799;50.844;5.304;2022-08-03T10:05:09;1.80;;;0.80;;
29938;SDS011;16799;50.844;5.304;2022-08-03T10:07:46;1.10;;;1.00;;
29938;SDS011;16799;50.844;5.304;2022-08-03T10:10:15;4.53;;;1.07;;
29938;SDS011;16799;50.844;5.304;2022-08-03T10:12:41;2.83;;;1.23;;
29938;SDS011;16799;50.844;5.304;2022-08-03T10:15:08;4.07;;;0.77;;
29938;SDS011;16799;50.844;5.304;2022-08-03T10:17:35;2.13;;;1.00;;
29938;SDS011;16799;50.844;5.304;2022-08-03T10:20:02;0.90;;;0.70;;
29938;SDS011;16799;50.844;5.304;2022-08-03T10:22:33;9.03;;;1.20;;
29938;SDS011;16799;50.844;5.304;2022-08-03T10:25:07;0.87;;;0.70;;
29938;SDS011;16799;50.844;5.304;2022-08-03T10:27:37;1.57;;;0.70;;
29938;SDS011;16799;50.844;5.304;2022-08-03T10:30:07;1.20;;;1.07;;
29938;SDS011;16799;50.844;5.304;2022-08-03T10:37:40;1.07;;;0.73;;
29938;SDS011;16799;50.844;5.304;2022-08-03T10:40:08;1.03;;;0.87;;
29938;SDS011;16799;50.844;5.304;2022-08-03T10:42:39;5.00;;;0.87;;
29938;SDS011;16799;50.844;5.304;2022-08-03T10:45:12;1.37;;;0.90;;
29938;SDS011;16799;50.844;5.304;2022-08-03T10:47:43;1.00;;;0.90;;
29938;SDS011;16799;50.844;5.304;2022-08-03T10:50:11;3.23;;;0.80;;
29938;SDS011;16799;50.844;5.304;2022-08-03T10:52:56;3.13;;;0.83;;
29938;SDS011;16799;50.844;5.304;2022-08-03T10:58:14;1.00;;;0.80;;
29938;SDS011;16799;50.844;5.304;2022-08-03T11:00:49;5.17;;;1.20;;
29938;SDS011;16799;50.844;5.304;2022-08-03T11:03:15;5.43;;;1.20;;
29938;SDS011;16799;50.844;5.304;2022-08-03T11:05:43;3.80;;;0.90;;
29938;SDS011;16799;50.844;5.304;2022-08-03T11:08:19;1.83;;;0.77;;
29938;SDS011;16799;50.844;5.304;2022-08-03T11:10:50;1.70;;;0.80;;
29938;SDS011;16799;50.844;5.304;2022-08-03T11:13:19;1.43;;;1.00;;
29938;SDS011;16799;50.844;5.304;2022-08-03T11:15:48;5.13;;;0.70;;
29938;SDS011;16799;50.844;5.304;2022-08-03T11:18:16;1.47;;;0.57;;
29938;SDS011;16799;50.844;5.304;2022-08-03T11:21:00;3.57;;;1.27;;
29938;SDS011;16799;50.844;5.304;2022-08-03T11:23:42;3.03;;;0.70;;
29938;SDS011;16799;50.844;5.304;2022-08-03T11:26:10;3.23;;;0.93;;
29938;SDS011;16799;50.844;5.304;2022-08-03T11:28:37;1.27;;;0.70;;
29938;SDS011;16799;50.844;5.304;2022-08-03T11:39:43;4.77;;;0.90;;
29938;SDS011;16799;50.844;5.304;2022-08-03T11:44:59;1.03;;;0.90;;
29938;SDS011;16799;50.844;5.304;2022-08-03T11:47:26;7.43;;;0.87;;
29938;SDS011;16799;50.844;5.304;2022-08-03T11:49:53;0.80;;;0.50;;
29938;SDS011;16799;50.844;5.304;2022-08-03T11:52:23;2.70;;;1.17;;
29938;SDS011;16799;50.844;5.304;2022-08-03T11:54:52;2.40;;;0.77;;
29938;SDS011;16799;50.844;5.304;2022-08-03T11:57:31;1.23;;;0.80;;
29938;SDS011;16799;50.844;5.304;2022-08-03T11:59:58;1.03;;;0.70;;
29938;SDS011;16799;50.844;5.304;2022-08-03T12:02:24;1.93;;;0.97;;
29938;SDS011;16799;50.844;5.304;2022-08-03T12:04:51;2.60;;;1.10;;
29938;SDS011;16799;50.844;5.304;2022-08-03T12:07:26;2.23;;;1.10;;
29938;SDS011;16799;50.844;5.304;2022-08-03T12:10:06;3.70;;;0.80;;
29938;SDS011;16799;50.844;5.304;2022-08-03T12:12:33;1.37;;;1.00;;
29938;SDS011;16799;50.844;5.304;2022-08-03T12:14:59;1.00;;;0.70;;
29938;SDS011;16799;50.844;5.304;2022-08-03T12:17:59;2.33;;;0.83;;
29938;SDS011;16799;50.844;5.304;2022-08-03T12:20:22;1.23;;;0.70;;
29938;SDS011;16799;50.844;5.304;2022-08-03T12:22:50;1.47;;;0.50;;
29938;SDS011;16799;50.844;5.304;2022-08-03T12:25:34;2.80;;;0.73;;
29938;SDS011;16799;50.844;5.304;2022-08-03T12:28:11;1.43;;;0.60;;
29938;SDS011;16799;50.844;5.304;2022-08-03T12:30:42;1.83;;;0.60;;
29938;SDS011;16799;50.844;5.304;2022-08-03T12:33:11;0.60;;;0.60;;
29938;SDS011;16799;50.844;5.304;2022-08-03T12:35:36;2.10;;;0.60;;
29938;SDS011;16799;50.844;5.304;2022-08-03T12:38:02;1.07;;;0.57;;
29938;SDS011;16799;50.844;5.304;2022-08-03T12:40:28;1.07;;;0.50;;
29938;SDS011;16799;50.844;5.304;2022-08-03T12:42:54;0.83;;;0.70;;
29938;SDS011;16799;50.844;5.304;2022-08-03T12:45:29;1.87;;;0.70;;
29938;SDS011;16799;50.844;5.304;2022-08-03T12:47:59;1.77;;;0.60;;
29938;SDS011;16799;50.844;5.304;2022-08-03T12:50:29;1.20;;;0.80;;
29938;SDS011;16799;50.844;5.304;2022-08-03T12:53:00;1.07;;;0.80;;
29938;SDS011;16799;50.844;5.304;2022-08-03T12:55:29;1.40;;;0.77;;
29938;SDS011;16799;50.844;5.304;2022-08-03T12:57:58;0.60;;;0.40;;
29938;SDS011;16799;50.844;5.304;2022-08-03T13:00:25;0.77;;;0.50;;
29938;SDS011;16799;50.844;5.304;2022-08-03T13:02:58;2.07;;;0.70;;
29938;SDS011;16799;50.844;5.304;2022-08-03T13:05:30;2.20;;;0.80;;
29938;SDS011;16799;50.844;5.304;2022-08-03T13:07:56;1.57;;;0.93;;
29938;SDS011;16799;50.844;5.304;2022-08-03T13:10:31;2.45;;;0.88;;
29938;SDS011;16799;50.844;5.304;2022-08-03T13:12:59;0.95;;;0.70;;
29938;SDS011;16799;50.844;5.304;2022-08-03T13:15:27;0.90;;;0.40;;
29938;SDS011;16799;50.844;5.304;2022-08-03T13:17:56;0.65;;;0.50;;
29938;SDS011;16799;50.844;5.304;2022-08-03T13:20:22;0.77;;;0.73;;
29938;SDS011;16799;50.844;5.304;2022-08-03T13:22:49;0.93;;;0.60;;
29938;SDS011;16799;50.844;5.304;2022-08-03T13:25:15;1.67;;;0.50;;
29938;SDS011;16799;50.844;5.304;2022-08-03T13:27:40;1.10;;;0.70;;
29938;SDS011;16799;50.844;5.304;2022-08-03T13:30:06;1.80;;;0.90;;
29938;SDS011;16799;50.844;5.304;2022-08-03T13:32:33;0.83;;;0.57;;
29938;SDS011;16799;50.844;5.304;2022-08-03T13:34:59;0.70;;;0.60;;
29938;SDS011;16799;50.844;5.304;2022-08-03T13:37:26;1.50;;;0.50;;
29938;SDS011;16799;50.844;5.304;2022-08-03T13:39:52;0.73;;;0.50;;
29938;SDS011;16799;50.844;5.304;2022-08-03T13:42:18;0.90;;;0.50;;
29938;SDS011;16799;50.844;5.304;2022-08-03T13:44:44;0.50;;;0.50;;
29938;SDS011;16799;50.844;5.304;2022-08-03T13:47:10;0.90;;;0.60;;
29938;SDS011;16799;50.844;5.304;2022-08-03T13:49:36;1.00;;;0.50;;
29938;SDS011;16799;50.844;5.304;2022-08-03T13:52:01;0.77;;;0.60;;
29938;SDS011;16799;50.844;5.304;2022-08-03T13:54:27;0.83;;;0.60;;
29938;SDS011;16799;50.844;5.304;2022-08-03T13:56:54;1.37;;;0.80;;
29938;SDS011;16799;50.844;5.304;2022-08-03T13:59:23;1.17;;;0.70;;
29938;SDS011;16799;50.844;5.304;2022-08-03T14:01:49;3.23;;;0.83;;
29938;SDS011;16799;50.844;5.304;2022-08-03T14:04:16;3.63;;;0.67;;
29938;SDS011;16799;50.844;5.304;2022-08-03T14:06:42;1.38;;;0.55;;
29938;SDS011;16799;50.844;5.304;2022-08-03T14:09:09;0.88;;;0.75;;
29938;SDS011;16799;50.844;5.304;2022-08-03T14:11:39;2.47;;;0.90;;
29938;SDS011;16799;50.844;5.304;2022-08-03T14:14:06;5.45;;;0.60;;
29938;SDS011;16799;50.844;5.304;2022-08-03T14:16:31;1.83;;;0.70;;
29938;SDS011;16799;50.844;5.304;2022-08-03T14:18:57;2.28;;;0.98;;
29938;SDS011;16799;50.844;5.304;2022-08-03T14:21:23;1.40;;;0.60;;
29938;SDS011;16799;50.844;5.304;2022-08-03T14:23:48;1.30;;;0.95;;
29938;SDS011;16799;50.844;5.304;2022-08-03T14:26:14;4.10;;;0.50;;
29938;SDS011;16799;50.844;5.304;2022-08-03T14:28:42;1.17;;;0.80;;
29938;SDS011;16799;50.844;5.304;2022-08-03T14:31:08;1.00;;;0.60;;
29938;SDS011;16799;50.844;5.304;2022-08-03T14:33:33;0.97;;;0.50;;
29938;SDS011;16799;50.844;5.304;2022-08-03T14:35:59;0.52;;;0.40;;
29938;SDS011;16799;50.844;5.304;2022-08-03T14:38:25;2.10;;;0.50;;
29938;SDS011;16799;50.844;5.304;2022-08-03T14:40:51;0.57;;;0.57;;
29938;SDS011;16799;50.844;5.304;2022-08-03T14:43:17;5.53;;;0.80;;
29938;SDS011;16799;50.844;5.304;2022-08-03T14:45:44;2.63;;;0.70;;
29938;SDS011;16799;50.844;5.304;2022-08-03T14:48:09;1.30;;;0.60;;
29938;SDS011;16799;50.844;5.304;2022-08-03T14:50:36;1.10;;;0.60;;
29938;SDS011;16799;50.844;5.304;2022-08-03T14:53:02;0.90;;;0.60;;
29938;SDS011;16799;50.844;5.304;2022-08-03T14:55:27;0.70;;;0.50;;
29938;SDS011;16799;50.844;5.304;2022-08-03T14:57:53;1.57;;;0.60;;
29938;SDS011;16799;50.844;5.304;2022-08-03T15:00:18;0.90;;;0.73;;
29938;SDS011;16799;50.844;5.304;2022-08-03T15:02:44;1.00;;;0.70;;
29938;SDS011;16799;50.844;5.304;2022-08-03T15:05:10;0.60;;;0.50;;
29938;SDS011;16799;50.844;5.304;2022-08-03T15:07:37;2.13;;;0.67;;
29938;SDS011;16799;50.844;5.304;2022-08-03T15:10:03;2.80;;;0.93;;
29938;SDS011;16799;50.844;5.304;2022-08-03T15:12:29;0.70;;;0.50;;
29938;SDS011;16799;50.844;5.304;2022-08-03T15:14:54;0.73;;;0.73;;
29938;SDS011;16799;50.844;5.304;2022-08-03T15:17:20;2.40;;;0.80;;
29938;SDS011;16799;50.844;5.304;2022-08-03T15:19:46;1.03;;;0.63;;